sensor_id;sensor_type;location;lat;lon;timestamp;temperature;humidity
19214;DHT22;9741;51.020;5.304;2024-03-23T00:51:33;8.80;69.90
19214;DHT22;9741;51.020;5.304;2024-03-23T00:54:01;8.80;69.80
19214;DHT22;9741;51.020;5.304;2024-03-23T00:56:27;8.80;69.80
19214;DHT22;9741;51.020;5.304;2024-03-23T00:58:55;8.80;69.80
19214;DHT22;9741;51.020;5.304;2024-03-23T01:01:22;8.80;69.90
19214;DHT22;9741;51.020;5.304;2024-03-23T01:03:49;8.80;69.90
19214;DHT22;9741;51.020;5.304;2024-03-23T01:06:16;8.90;70.00
19214;DHT22;9741;51.020;5.304;2024-03-23T01:08:45;8.90;70.00
19214;DHT22;9741;51.020;5.304;2024-03-23T01:11:12;8.90;70.00
19214;DHT22;9741;51.020;5.304;2024-03-23T01:13:40;8.80;70.00
19214;DHT22;9741;51.020;5.304;2024-03-23T01:16:07;8.80;70.00
19214;DHT22;9741;51.020;5.304;2024-03-23T01:18:35;8.80;70.10
19214;DHT22;9741;51.020;5.304;2024-03-23T01:21:02;8.80;70.10
19214;DHT22;9741;51.020;5.304;2024-03-23T01:23:30;8.90;70.20
19214;DHT22;9741;51.020;5.304;2024-03-23T01:25:58;8.80;70.10
19214;DHT22;9741;51.020;5.304;2024-03-23T01:28:26;8.90;70.30
19214;DHT22;9741;51.020;5.304;2024-03-23T01:30:52;8.80;70.20
19214;DHT22;9741;51.020;5.304;2024-03-23T01:33:19;8.80;70.30
19214;DHT22;9741;51.020;5.304;2024-03-23T01:35:45;8.80;70.30
19214;DHT22;9741;51.020;5.304;2024-03-23T01:38:12;8.80;70.80
19214;DHT22;9741;51.020;5.304;2024-03-23T01:40:38;8.80;70.30
19214;DHT22;9741;51.020;5.304;2024-03-23T01:43:07;8.80;70.30
19214;DHT22;9741;51.020;5.304;2024-03-23T01:45:34;8.70;70.30
19214;DHT22;9741;51.020;5.304;2024-03-23T01:48:02;8.70;70.40
19214;DHT22;9741;51.020;5.304;2024-03-23T01:50:30;8.70;70.40
19214;DHT22;9741;51.020;5.304;2024-03-23T01:53:02;8.70;70.50
19214;DHT22;9741;51.020;5.304;2024-03-23T01:55:31;8.70;70.50
19214;DHT22;9741;51.020;5.304;2024-03-23T01:57:59;8.70;70.50
19214;DHT22;9741;51.020;5.304;2024-03-23T02:00:27;8.70;70.50
19214;DHT22;9741;51.020;5.304;2024-03-23T02:02:55;8.60;70.50
19214;DHT22;9741;51.020;5.304;2024-03-23T02:05:22;8.60;70.50
19214;DHT22;9741;51.020;5.304;2024-03-23T02:07:52;8.60;70.50
19214;DHT22;9741;51.020;5.304;2024-03-23T02:10:19;8.60;70.60
19214;DHT22;9741;51.020;5.304;2024-03-23T02:12:47;8.60;70.60
19214;DHT22;9741;51.020;5.304;2024-03-23T02:15:13;8.60;70.60
19214;DHT22;9741;51.020;5.304;2024-03-23T02:17:42;8.70;70.70
19214;DHT22;9741;51.020;5.304;2024-03-23T02:20:12;8.70;70.70
19214;DHT22;9741;51.020;5.304;2024-03-23T02:22:39;8.70;70.60
19214;DHT22;9741;51.020;5.304;2024-03-23T02:25:08;8.60;70.50
19214;DHT22;9741;51.020;5.304;2024-03-23T02:27:39;8.60;70.50
19214;DHT22;9741;51.020;5.304;2024-03-23T02:30:07;8.60;70.50
19214;DHT22;9741;51.020;5.304;2024-03-23T02:32:34;8.60;70.50
19214;DHT22;9741;51.020;5.304;2024-03-23T02:35:01;8.60;70.50
19214;DHT22;9741;51.020;5.304;2024-03-23T02:37:29;8.60;70.50
19214;DHT22;9741;51.020;5.304;2024-03-23T02:39:56;8.60;70.50
19214;DHT22;9741;51.020;5.304;2024-03-23T02:42:25;8.60;70.60
19214;DHT22;9741;51.020;5.304;2024-03-23T02:44:53;8.60;70.60
19214;DHT22;9741;51.020;5.304;2024-03-23T02:47:20;8.50;70.60
19214;DHT22;9741;51.020;5.304;2024-03-23T02:49:47;8.50;70.60
19214;DHT22;9741;51.020;5.304;2024-03-23T02:52:16;8.50;70.60
19214;DHT22;9741;51.020;5.304;2024-03-23T02:54:43;8.40;70.50
19214;DHT22;9741;51.020;5.304;2024-03-23T02:57:11;8.30;70.60
19214;DHT22;9741;51.020;5.304;2024-03-23T02:59:41;8.40;70.80
19214;DHT22;9741;51.020;5.304;2024-03-23T03:02:09;8.40;70.90
19214;DHT22;9741;51.020;5.304;2024-03-23T03:04:36;8.40;71.10
19214;DHT22;9741;51.020;5.304;2024-03-23T03:07:04;8.40;71.10
19214;DHT22;9741;51.020;5.304;2024-03-23T03:09:31;8.40;71.10
19214;DHT22;9741;51.020;5.304;2024-03-23T03:11:59;8.40;71.00
19214;DHT22;9741;51.020;5.304;2024-03-23T03:14:26;8.40;70.90
19214;DHT22;9741;51.020;5.304;2024-03-23T03:16:56;8.50;70.90
19214;DHT22;9741;51.020;5.304;2024-03-23T03:19:23;8.40;70.90
19214;DHT22;9741;51.020;5.304;2024-03-23T03:21:51;8.40;70.90
19214;DHT22;9741;51.020;5.304;2024-03-23T03:24:19;8.40;70.90
19214;DHT22;9741;51.020;5.304;2024-03-23T03:26:48;8.40;71.00
19214;DHT22;9741;51.020;5.304;2024-03-23T03:29:16;8.40;71.10
19214;DHT22;9741;51.020;5.304;2024-03-23T03:31:44;8.50;71.10
19214;DHT22;9741;51.020;5.304;2024-03-23T03:34:12;8.40;71.10
19214;DHT22;9741;51.020;5.304;2024-03-23T03:36:41;8.50;71.20
19214;DHT22;9741;51.020;5.304;2024-03-23T03:39:08;8.50;71.10
19214;DHT22;9741;51.020;5.304;2024-03-23T03:41:35;8.50;71.20
19214;DHT22;9741;51.020;5.304;2024-03-23T03:44:01;8.50;71.10
19214;DHT22;9741;51.020;5.304;2024-03-23T03:46:29;8.50;71.20
19214;DHT22;9741;51.020;5.304;2024-03-23T03:48:55;8.50;71.20
19214;DHT22;9741;51.020;5.304;2024-03-23T03:51:24;8.50;71.20
19214;DHT22;9741;51.020;5.304;2024-03-23T03:53:50;8.50;71.10
19214;DHT22;9741;51.020;5.304;2024-03-23T03:56:18;8.50;71.00
19214;DHT22;9741;51.020;5.304;2024-03-23T03:58:44;8.50;70.90
19214;DHT22;9741;51.020;5.304;2024-03-23T04:01:12;8.30;70.70
19214;DHT22;9741;51.020;5.304;2024-03-23T04:03:40;8.30;70.80
19214;DHT22;9741;51.020;5.304;2024-03-23T04:06:10;8.20;70.80
19214;DHT22;9741;51.020;5.304;2024-03-23T04:08:37;8.10;70.90
19214;DHT22;9741;51.020;5.304;2024-03-23T04:11:05;8.00;70.90
19214;DHT22;9741;51.020;5.304;2024-03-23T04:13:32;8.00;71.00
19214;DHT22;9741;51.020;5.304;2024-03-23T04:16:00;7.90;70.90
19214;DHT22;9741;51.020;5.304;2024-03-23T04:18:27;7.80;70.80
19214;DHT22;9741;51.020;5.304;2024-03-23T04:20:58;7.80;70.90
19214;DHT22;9741;51.020;5.304;2024-03-23T04:23:24;7.60;70.70
19214;DHT22;9741;51.020;5.304;2024-03-23T04:25:53;7.50;70.70
19214;DHT22;9741;51.020;5.304;2024-03-23T04:28:20;7.40;70.70
19214;DHT22;9741;51.020;5.304;2024-03-23T04:30:50;7.30;70.80
19214;DHT22;9741;51.020;5.304;2024-03-23T04:33:16;7.20;70.70
19214;DHT22;9741;51.020;5.304;2024-03-23T04:35:43;7.10;70.80
19214;DHT22;9741;51.020;5.304;2024-03-23T04:38:09;7.00;70.90
19214;DHT22;9741;51.020;5.304;2024-03-23T04:40:36;6.90;70.90
19214;DHT22;9741;51.020;5.304;2024-03-23T04:43:04;6.80;70.90
19214;DHT22;9741;51.020;5.304;2024-03-23T04:45:32;6.80;71.00
19214;DHT22;9741;51.020;5.304;2024-03-23T04:47:59;6.70;71.00
19214;DHT22;9741;51.020;5.304;2024-03-23T04:50:26;6.60;71.00
19214;DHT22;9741;51.020;5.304;2024-03-23T04:52:52;6.50;71.00
19214;DHT22;9741;51.020;5.304;2024-03-23T04:55:20;6.50;71.10
19214;DHT22;9741;51.020;5.304;2024-03-23T04:57:54;6.40;71.20
19214;DHT22;9741;51.020;5.304;2024-03-23T05:00:25;6.30;71.20
19214;DHT22;9741;51.020;5.304;2024-03-23T05:02:53;6.40;71.30
19214;DHT22;9741;51.020;5.304;2024-03-23T05:05:19;6.30;71.30
19214;DHT22;9741;51.020;5.304;2024-03-23T05:07:46;6.20;71.30
19214;DHT22;9741;51.020;5.304;2024-03-23T05:10:13;6.20;71.30
19214;DHT22;9741;51.020;5.304;2024-03-23T05:12:41;6.20;71.40
19214;DHT22;9741;51.020;5.304;2024-03-23T05:15:07;6.10;71.20
19214;DHT22;9741;51.020;5.304;2024-03-23T05:17:36;6.10;71.20
19214;DHT22;9741;51.020;5.304;2024-03-23T05:20:04;6.00;71.30
19214;DHT22;9741;51.020;5.304;2024-03-23T05:22:36;6.00;71.40
19214;DHT22;9741;51.020;5.304;2024-03-23T05:25:04;6.00;71.40
19214;DHT22;9741;51.020;5.304;2024-03-23T05:27:33;5.90;71.30
19214;DHT22;9741;51.020;5.304;2024-03-23T05:30:02;5.90;71.50
19214;DHT22;9741;51.020;5.304;2024-03-23T05:32:29;5.90;71.70
19214;DHT22;9741;51.020;5.304;2024-03-23T05:35:00;6.00;72.10
19214;DHT22;9741;51.020;5.304;2024-03-23T05:37:26;6.10;72.40
19214;DHT22;9741;51.020;5.304;2024-03-23T05:39:53;6.20;72.50
19214;DHT22;9741;51.020;5.304;2024-03-23T05:42:19;6.30;72.50
19214;DHT22;9741;51.020;5.304;2024-03-23T05:44:47;6.40;72.50
19214;DHT22;9741;51.020;5.304;2024-03-23T05:47:16;6.50;72.50
19214;DHT22;9741;51.020;5.304;2024-03-23T05:49:45;6.60;72.50
19214;DHT22;9741;51.020;5.304;2024-03-23T05:52:16;6.70;72.50
19214;DHT22;9741;51.020;5.304;2024-03-23T05:54:43;6.80;72.50
19214;DHT22;9741;51.020;5.304;2024-03-23T05:57:10;6.90;72.30
19214;DHT22;9741;51.020;5.304;2024-03-23T05:59:38;6.90;72.20
19214;DHT22;9741;51.020;5.304;2024-03-23T06:02:15;7.00;72.30
19214;DHT22;9741;51.020;5.304;2024-03-23T06:04:43;7.00;72.20
19214;DHT22;9741;51.020;5.304;2024-03-23T06:07:11;7.00;72.10
19214;DHT22;9741;51.020;5.304;2024-03-23T06:09:42;7.00;72.00
19214;DHT22;9741;51.020;5.304;2024-03-23T06:12:09;7.00;71.90
19214;DHT22;9741;51.020;5.304;2024-03-23T06:14:37;7.00;71.90
19214;DHT22;9741;51.020;5.304;2024-03-23T06:17:03;7.00;71.90
19214;DHT22;9741;51.020;5.304;2024-03-23T06:19:31;7.00;72.00
19214;DHT22;9741;51.020;5.304;2024-03-23T06:21:57;7.00;72.00
19214;DHT22;9741;51.020;5.304;2024-03-23T06:24:25;7.00;72.20
19214;DHT22;9741;51.020;5.304;2024-03-23T06:26:53;7.00;72.30
19214;DHT22;9741;51.020;5.304;2024-03-23T06:29:23;7.00;72.30
19214;DHT22;9741;51.020;5.304;2024-03-23T06:31:53;7.00;72.20
19214;DHT22;9741;51.020;5.304;2024-03-23T06:34:22;7.00;72.40
19214;DHT22;9741;51.020;5.304;2024-03-23T06:36:48;7.00;72.40
19214;DHT22;9741;51.020;5.304;2024-03-23T06:39:16;7.10;72.60
19214;DHT22;9741;51.020;5.304;2024-03-23T06:41:43;7.20;72.70
19214;DHT22;9741;51.020;5.304;2024-03-23T06:44:12;7.20;72.80
19214;DHT22;9741;51.020;5.304;2024-03-23T06:46:38;7.30;73.00
19214;DHT22;9741;51.020;5.304;2024-03-23T06:49:06;7.40;73.20
19214;DHT22;9741;51.020;5.304;2024-03-23T06:51:32;7.70;73.70
19214;DHT22;9741;51.020;5.304;2024-03-23T06:54:00;7.90;73.80
19214;DHT22;9741;51.020;5.304;2024-03-23T06:56:26;8.10;73.70
19214;DHT22;9741;51.020;5.304;2024-03-23T06:58:55;8.30;73.70
19214;DHT22;9741;51.020;5.304;2024-03-23T07:01:24;8.50;74.10
19214;DHT22;9741;51.020;5.304;2024-03-23T07:03:53;8.80;73.70
19214;DHT22;9741;51.020;5.304;2024-03-23T07:06:22;8.90;73.40
19214;DHT22;9741;51.020;5.304;2024-03-23T07:08:49;9.10;73.20
19214;DHT22;9741;51.020;5.304;2024-03-23T07:11:19;9.10;72.90
19214;DHT22;9741;51.020;5.304;2024-03-23T07:13:49;9.10;72.80
19214;DHT22;9741;51.020;5.304;2024-03-23T07:16:16;9.20;72.90
19214;DHT22;9741;51.020;5.304;2024-03-23T07:18:44;9.30;73.10
19214;DHT22;9741;51.020;5.304;2024-03-23T07:21:11;9.40;73.20
19214;DHT22;9741;51.020;5.304;2024-03-23T07:23:42;9.50;73.20
19214;DHT22;9741;51.020;5.304;2024-03-23T07:26:11;9.70;73.40
19214;DHT22;9741;51.020;5.304;2024-03-23T07:28:39;9.90;73.30
19214;DHT22;9741;51.020;5.304;2024-03-23T07:31:11;10.20;72.30
19214;DHT22;9741;51.020;5.304;2024-03-23T07:33:42;10.20;71.80
19214;DHT22;9741;51.020;5.304;2024-03-23T07:36:10;10.30;71.80
19214;DHT22;9741;51.020;5.304;2024-03-23T07:38:42;10.50;71.90
19214;DHT22;9741;51.020;5.304;2024-03-23T07:41:09;10.60;71.80
19214;DHT22;9741;51.020;5.304;2024-03-23T07:43:38;10.80;71.80
19214;DHT22;9741;51.020;5.304;2024-03-23T07:46:05;10.90;71.50
19214;DHT22;9741;51.020;5.304;2024-03-23T07:48:33;10.90;71.10
19214;DHT22;9741;51.020;5.304;2024-03-23T07:51:00;10.80;70.80
19214;DHT22;9741;51.020;5.304;2024-03-23T07:53:30;10.80;71.20
19214;DHT22;9741;51.020;5.304;2024-03-23T07:55:58;10.70;70.60
19214;DHT22;9741;51.020;5.304;2024-03-23T07:58:26;10.60;70.70
19214;DHT22;9741;51.020;5.304;2024-03-23T08:00:53;10.50;70.70
19214;DHT22;9741;51.020;5.304;2024-03-23T08:03:22;10.50;71.00
19214;DHT22;9741;51.020;5.304;2024-03-23T08:05:49;10.50;71.20
19214;DHT22;9741;51.020;5.304;2024-03-23T08:08:17;10.60;71.20
19214;DHT22;9741;51.020;5.304;2024-03-23T08:10:52;10.60;71.00
19214;DHT22;9741;51.020;5.304;2024-03-23T08:13:19;10.50;70.80
19214;DHT22;9741;51.020;5.304;2024-03-23T08:15:45;10.50;70.70
19214;DHT22;9741;51.020;5.304;2024-03-23T08:18:16;10.50;70.80
19214;DHT22;9741;51.020;5.304;2024-03-23T08:20:42;10.50;70.90
19214;DHT22;9741;51.020;5.304;2024-03-23T08:23:09;10.50;70.70
19214;DHT22;9741;51.020;5.304;2024-03-23T08:25:36;10.50;70.80
19214;DHT22;9741;51.020;5.304;2024-03-23T08:28:07;10.60;71.00
19214;DHT22;9741;51.020;5.304;2024-03-23T08:30:35;10.90;71.30
19214;DHT22;9741;51.020;5.304;2024-03-23T08:33:04;11.50;71.90
19214;DHT22;9741;51.020;5.304;2024-03-23T08:35:31;12.40;72.00
19214;DHT22;9741;51.020;5.304;2024-03-23T08:38:00;13.50;71.80
19214;DHT22;9741;51.020;5.304;2024-03-23T08:40:27;14.20;69.90
19214;DHT22;9741;51.020;5.304;2024-03-23T08:42:54;14.80;69.80
19214;DHT22;9741;51.020;5.304;2024-03-23T08:45:25;15.20;68.10
19214;DHT22;9741;51.020;5.304;2024-03-23T08:47:53;15.20;66.80
19214;DHT22;9741;51.020;5.304;2024-03-23T08:50:19;15.10;66.00
19214;DHT22;9741;51.020;5.304;2024-03-23T08:52:51;14.80;65.20
19214;DHT22;9741;51.020;5.304;2024-03-23T08:55:17;14.50;64.70
19214;DHT22;9741;51.020;5.304;2024-03-23T08:57:45;14.30;64.80
19214;DHT22;9741;51.020;5.304;2024-03-23T09:00:13;14.00;64.40
19214;DHT22;9741;51.020;5.304;2024-03-23T09:02:44;14.00;64.60
19214;DHT22;9741;51.020;5.304;2024-03-23T09:05:15;14.10;65.10
19214;DHT22;9741;51.020;5.304;2024-03-23T09:07:43;14.40;65.60
19214;DHT22;9741;51.020;5.304;2024-03-23T09:10:09;15.00;65.30
19214;DHT22;9741;51.020;5.304;2024-03-23T09:12:37;15.40;64.70
19214;DHT22;9741;51.020;5.304;2024-03-23T09:15:04;16.10;64.20
19214;DHT22;9741;51.020;5.304;2024-03-23T09:17:31;16.40;62.70
19214;DHT22;9741;51.020;5.304;2024-03-23T09:20:00;16.60;61.60
19214;DHT22;9741;51.020;5.304;2024-03-23T09:22:33;16.80;61.00
19214;DHT22;9741;51.020;5.304;2024-03-23T09:25:03;16.90;60.50
19214;DHT22;9741;51.020;5.304;2024-03-23T09:27:31;16.80;59.30
19214;DHT22;9741;51.020;5.304;2024-03-23T09:29:58;16.40;58.20
19214;DHT22;9741;51.020;5.304;2024-03-23T09:32:26;16.10;57.80
19214;DHT22;9741;51.020;5.304;2024-03-23T09:34:53;15.70;57.20
19214;DHT22;9741;51.020;5.304;2024-03-23T09:37:29;15.30;56.80
19214;DHT22;9741;51.020;5.304;2024-03-23T09:39:58;15.00;56.80
19214;DHT22;9741;51.020;5.304;2024-03-23T09:42:25;14.70;56.80
19214;DHT22;9741;51.020;5.304;2024-03-23T09:44:52;14.50;56.90
19214;DHT22;9741;51.020;5.304;2024-03-23T09:47:21;14.40;56.80
19214;DHT22;9741;51.020;5.304;2024-03-23T09:49:47;14.30;56.60
19214;DHT22;9741;51.020;5.304;2024-03-23T09:52:15;14.30;56.60
19214;DHT22;9741;51.020;5.304;2024-03-23T09:54:43;14.50;57.40
19214;DHT22;9741;51.020;5.304;2024-03-23T09:57:10;15.00;56.90
19214;DHT22;9741;51.020;5.304;2024-03-23T09:59:37;15.40;56.60
19214;DHT22;9741;51.020;5.304;2024-03-23T10:02:05;15.70;56.20
19214;DHT22;9741;51.020;5.304;2024-03-23T10:04:37;15.90;55.80
19214;DHT22;9741;51.020;5.304;2024-03-23T10:07:14;15.80;55.60
19214;DHT22;9741;51.020;5.304;2024-03-23T10:09:43;15.80;55.70
19214;DHT22;9741;51.020;5.304;2024-03-23T10:12:11;15.80;55.70
19214;DHT22;9741;51.020;5.304;2024-03-23T10:14:39;16.00;55.70
19214;DHT22;9741;51.020;5.304;2024-03-23T10:17:12;16.30;55.50
19214;DHT22;9741;51.020;5.304;2024-03-23T10:19:41;16.60;55.00
19214;DHT22;9741;51.020;5.304;2024-03-23T10:22:14;17.00;54.70
19214;DHT22;9741;51.020;5.304;2024-03-23T10:24:43;17.20;53.80
19214;DHT22;9741;51.020;5.304;2024-03-23T10:27:16;17.30;53.20
19214;DHT22;9741;51.020;5.304;2024-03-23T10:29:43;17.20;52.50
19214;DHT22;9741;51.020;5.304;2024-03-23T10:32:12;17.00;52.40
19214;DHT22;9741;51.020;5.304;2024-03-23T10:34:44;16.90;52.30
19214;DHT22;9741;51.020;5.304;2024-03-23T10:37:12;16.80;52.20
19214;DHT22;9741;51.020;5.304;2024-03-23T10:39:40;16.70;51.80
19214;DHT22;9741;51.020;5.304;2024-03-23T10:42:12;16.40;51.30
19214;DHT22;9741;51.020;5.304;2024-03-23T10:44:39;15.90;50.60
19214;DHT22;9741;51.020;5.304;2024-03-23T10:47:06;15.10;50.00
19214;DHT22;9741;51.020;5.304;2024-03-23T10:49:33;14.40;49.90
19214;DHT22;9741;51.020;5.304;2024-03-23T10:52:02;13.70;49.80
19214;DHT22;9741;51.020;5.304;2024-03-23T10:54:31;13.10;50.20
19214;DHT22;9741;51.020;5.304;2024-03-23T10:57:03;12.50;50.60
19214;DHT22;9741;51.020;5.304;2024-03-23T10:59:32;12.20;51.20
19214;DHT22;9741;51.020;5.304;2024-03-23T11:02:01;12.00;51.60
19214;DHT22;9741;51.020;5.304;2024-03-23T11:04:30;11.90;51.90
19214;DHT22;9741;51.020;5.304;2024-03-23T11:06:58;11.80;52.10
19214;DHT22;9741;51.020;5.304;2024-03-23T11:09:41;11.60;52.20
19214;DHT22;9741;51.020;5.304;2024-03-23T11:12:29;11.60;52.60
19214;DHT22;9741;51.020;5.304;2024-03-23T11:15:03;11.70;53.00
19214;DHT22;9741;51.020;5.304;2024-03-23T11:17:31;11.80;53.00
19214;DHT22;9741;51.020;5.304;2024-03-23T11:19:59;11.80;52.70
19214;DHT22;9741;51.020;5.304;2024-03-23T11:22:41;11.70;52.40
19214;DHT22;9741;51.020;5.304;2024-03-23T11:25:17;11.40;52.20
19214;DHT22;9741;51.020;5.304;2024-03-23T11:27:54;11.10;52.20
19214;DHT22;9741;51.020;5.304;2024-03-23T11:30:28;10.80;52.50
19214;DHT22;9741;51.020;5.304;2024-03-23T11:32:56;10.60;53.00
19214;DHT22;9741;51.020;5.304;2024-03-23T11:35:28;10.60;53.40
19214;DHT22;9741;51.020;5.304;2024-03-23T11:38:03;10.80;53.90
19214;DHT22;9741;51.020;5.304;2024-03-23T11:40:31;10.90;54.10
19214;DHT22;9741;51.020;5.304;2024-03-23T11:42:59;11.10;54.50
19214;DHT22;9741;51.020;5.304;2024-03-23T11:45:31;11.30;54.70
19214;DHT22;9741;51.020;5.304;2024-03-23T11:48:06;11.30;54.70
19214;DHT22;9741;51.020;5.304;2024-03-23T11:50:36;11.30;54.90
19214;DHT22;9741;51.020;5.304;2024-03-23T11:53:13;11.30;55.10
19214;DHT22;9741;51.020;5.304;2024-03-23T11:55:48;11.40;55.20
19214;DHT22;9741;51.020;5.304;2024-03-23T11:58:15;11.30;55.20
19214;DHT22;9741;51.020;5.304;2024-03-23T12:00:50;11.30;55.30
19214;DHT22;9741;51.020;5.304;2024-03-23T12:03:17;11.40;55.40
19214;DHT22;9741;51.020;5.304;2024-03-23T12:05:48;11.40;55.30
19214;DHT22;9741;51.020;5.304;2024-03-23T12:08:22;11.50;55.20
19214;DHT22;9741;51.020;5.304;2024-03-23T12:10:52;11.60;55.00
19214;DHT22;9741;51.020;5.304;2024-03-23T12:13:19;11.70;54.70
19214;DHT22;9741;51.020;5.304;2024-03-23T12:15:50;11.80;54.60
19214;DHT22;9741;51.020;5.304;2024-03-23T12:18:16;11.90;54.60
19214;DHT22;9741;51.020;5.304;2024-03-23T12:20:44;12.10;54.70
19214;DHT22;9741;51.020;5.304;2024-03-23T12:23:12;12.20;54.60
19214;DHT22;9741;51.020;5.304;2024-03-23T12:25:43;12.40;54.60
19214;DHT22;9741;51.020;5.304;2024-03-23T12:28:09;12.40;54.50
19214;DHT22;9741;51.020;5.304;2024-03-23T12:30:39;12.30;54.30
19214;DHT22;9741;51.020;5.304;2024-03-23T12:33:07;12.30;54.40
19214;DHT22;9741;51.020;5.304;2024-03-23T12:35:35;12.30;54.50
19214;DHT22;9741;51.020;5.304;2024-03-23T12:38:01;12.30;54.70
19214;DHT22;9741;51.020;5.304;2024-03-23T12:40:31;12.40;55.00
19214;DHT22;9741;51.020;5.304;2024-03-23T12:42:57;12.50;55.20
19214;DHT22;9741;51.020;5.304;2024-03-23T12:45:25;12.80;55.20
19214;DHT22;9741;51.020;5.304;2024-03-23T12:47:52;13.00;54.90
19214;DHT22;9741;51.020;5.304;2024-03-23T12:50:23;13.30;54.70
19214;DHT22;9741;51.020;5.304;2024-03-23T12:52:49;13.70;54.40
19214;DHT22;9741;51.020;5.304;2024-03-23T12:55:17;13.90;54.00
19214;DHT22;9741;51.020;5.304;2024-03-23T12:57:44;13.90;53.30
19214;DHT22;9741;51.020;5.304;2024-03-23T13:00:12;13.70;52.60
19214;DHT22;9741;51.020;5.304;2024-03-23T13:02:39;13.30;51.90
19214;DHT22;9741;51.020;5.304;2024-03-23T13:05:08;12.80;51.40
19214;DHT22;9741;51.020;5.304;2024-03-23T13:07:36;12.50;51.30
19214;DHT22;9741;51.020;5.304;2024-03-23T13:10:05;12.20;51.50
19214;DHT22;9741;51.020;5.304;2024-03-23T13:12:32;12.20;51.90
19214;DHT22;9741;51.020;5.304;2024-03-23T13:15:00;12.30;52.10
19214;DHT22;9741;51.020;5.304;2024-03-23T13:17:27;12.40;52.00
19214;DHT22;9741;51.020;5.304;2024-03-23T13:19:55;12.50;51.90
19214;DHT22;9741;51.020;5.304;2024-03-23T13:22:22;12.40;51.60
19214;DHT22;9741;51.020;5.304;2024-03-23T13:24:52;12.30;51.50
19214;DHT22;9741;51.020;5.304;2024-03-23T13:27:19;12.30;51.50
19214;DHT22;9741;51.020;5.304;2024-03-23T13:29:49;12.10;51.50
19214;DHT22;9741;51.020;5.304;2024-03-23T13:32:16;12.10;51.60
19214;DHT22;9741;51.020;5.304;2024-03-23T13:34:44;12.00;51.60
19214;DHT22;9741;51.020;5.304;2024-03-23T13:37:13;11.80;51.50
19214;DHT22;9741;51.020;5.304;2024-03-23T13:39:41;11.50;51.10
19214;DHT22;9741;51.020;5.304;2024-03-23T13:42:10;11.00;50.80
19214;DHT22;9741;51.020;5.304;2024-03-23T13:44:39;10.70;51.00
19214;DHT22;9741;51.020;5.304;2024-03-23T13:47:08;10.50;51.40
19214;DHT22;9741;51.020;5.304;2024-03-23T13:49:37;10.40;51.80
19214;DHT22;9741;51.020;5.304;2024-03-23T13:52:06;10.50;52.10
19214;DHT22;9741;51.020;5.304;2024-03-23T13:54:35;10.60;52.40
19214;DHT22;9741;51.020;5.304;2024-03-23T13:57:02;10.80;52.70
19214;DHT22;9741;51.020;5.304;2024-03-23T13:59:31;11.00;53.00
19214;DHT22;9741;51.020;5.304;2024-03-23T14:01:58;11.30;53.00
19214;DHT22;9741;51.020;5.304;2024-03-23T14:04:25;11.40;53.00
19214;DHT22;9741;51.020;5.304;2024-03-23T14:06:52;11.60;52.90
19214;DHT22;9741;51.020;5.304;2024-03-23T14:09:20;11.60;52.70
19214;DHT22;9741;51.020;5.304;2024-03-23T14:11:49;11.60;53.20
19214;DHT22;9741;51.020;5.304;2024-03-23T14:14:16;11.50;52.70
19214;DHT22;9741;51.020;5.304;2024-03-23T14:16:44;11.30;52.60
19214;DHT22;9741;51.020;5.304;2024-03-23T14:19:16;11.10;52.70
19214;DHT22;9741;51.020;5.304;2024-03-23T14:21:43;11.00;53.00
19214;DHT22;9741;51.020;5.304;2024-03-23T14:24:11;11.00;53.40
19214;DHT22;9741;51.020;5.304;2024-03-23T14:26:37;11.10;53.50
19214;DHT22;9741;51.020;5.304;2024-03-23T14:29:08;11.30;53.60
19214;DHT22;9741;51.020;5.304;2024-03-23T14:31:35;11.30;53.50
19214;DHT22;9741;51.020;5.304;2024-03-23T14:34:03;11.20;53.40
19214;DHT22;9741;51.020;5.304;2024-03-23T14:36:34;11.20;53.70
19214;DHT22;9741;51.020;5.304;2024-03-23T14:39:02;11.20;54.00
19214;DHT22;9741;51.020;5.304;2024-03-23T14:41:30;11.20;54.00
19214;DHT22;9741;51.020;5.304;2024-03-23T14:43:58;11.30;54.40
19214;DHT22;9741;51.020;5.304;2024-03-23T14:46:25;11.30;54.40
19214;DHT22;9741;51.020;5.304;2024-03-23T14:48:51;11.20;54.30
19214;DHT22;9741;51.020;5.304;2024-03-23T14:51:21;11.10;54.60
19214;DHT22;9741;51.020;5.304;2024-03-23T14:53:48;11.10;54.90
19214;DHT22;9741;51.020;5.304;2024-03-23T14:56:16;10.90;55.00
19214;DHT22;9741;51.020;5.304;2024-03-23T14:58:42;10.90;55.30
19214;DHT22;9741;51.020;5.304;2024-03-23T15:01:12;10.90;55.50
19214;DHT22;9741;51.020;5.304;2024-03-23T15:03:39;10.80;55.60
19214;DHT22;9741;51.020;5.304;2024-03-23T15:06:09;10.80;55.70
19214;DHT22;9741;51.020;5.304;2024-03-23T15:08:39;10.70;55.70
19214;DHT22;9741;51.020;5.304;2024-03-23T15:11:07;10.60;55.70
19214;DHT22;9741;51.020;5.304;2024-03-23T15:13:34;10.50;55.60
19214;DHT22;9741;51.020;5.304;2024-03-23T15:16:02;10.50;55.80
19214;DHT22;9741;51.020;5.304;2024-03-23T15:22:11;10.40;56.00
19214;DHT22;9741;51.020;5.304;2024-03-23T15:24:39;10.40;56.20
19214;DHT22;9741;51.020;5.304;2024-03-23T15:27:05;10.40;56.20
19214;DHT22;9741;51.020;5.304;2024-03-23T15:29:34;10.40;56.30
19214;DHT22;9741;51.020;5.304;2024-03-23T15:32:02;10.40;56.40
19214;DHT22;9741;51.020;5.304;2024-03-23T15:34:29;10.40;56.40
19214;DHT22;9741;51.020;5.304;2024-03-23T15:36:55;10.50;56.40
19214;DHT22;9741;51.020;5.304;2024-03-23T15:39:22;10.50;56.40
19214;DHT22;9741;51.020;5.304;2024-03-23T15:41:50;10.60;56.40
19214;DHT22;9741;51.020;5.304;2024-03-23T15:44:17;10.70;56.30
19214;DHT22;9741;51.020;5.304;2024-03-23T15:46:43;10.70;56.10
19214;DHT22;9741;51.020;5.304;2024-03-23T15:49:18;10.80;56.10
19214;DHT22;9741;51.020;5.304;2024-03-23T15:51:50;10.90;56.10
19214;DHT22;9741;51.020;5.304;2024-03-23T15:54:17;11.00;56.00
19214;DHT22;9741;51.020;5.304;2024-03-23T15:56:43;11.10;55.90
19214;DHT22;9741;51.020;5.304;2024-03-23T15:59:12;11.20;55.60
19214;DHT22;9741;51.020;5.304;2024-03-23T16:01:38;11.30;55.50
19214;DHT22;9741;51.020;5.304;2024-03-23T16:04:07;11.30;55.30
19214;DHT22;9741;51.020;5.304;2024-03-23T16:06:37;11.30;55.10
19214;DHT22;9741;51.020;5.304;2024-03-23T16:09:04;11.40;55.00
19214;DHT22;9741;51.020;5.304;2024-03-23T16:11:30;11.30;54.70
19214;DHT22;9741;51.020;5.304;2024-03-23T16:13:57;11.40;54.60
19214;DHT22;9741;51.020;5.304;2024-03-23T16:16:26;11.30;54.40
19214;DHT22;9741;51.020;5.304;2024-03-23T16:18:53;11.30;54.40
19214;DHT22;9741;51.020;5.304;2024-03-23T16:21:19;11.30;54.50
19214;DHT22;9741;51.020;5.304;2024-03-23T16:23:46;11.20;54.40
19214;DHT22;9741;51.020;5.304;2024-03-23T16:26:12;11.20;54.50
19214;DHT22;9741;51.020;5.304;2024-03-23T16:28:42;11.20;54.60
19214;DHT22;9741;51.020;5.304;2024-03-23T16:31:09;11.20;54.60
19214;DHT22;9741;51.020;5.304;2024-03-23T16:33:38;11.30;54.60
19214;DHT22;9741;51.020;5.304;2024-03-23T16:36:08;11.30;54.40
19214;DHT22;9741;51.020;5.304;2024-03-23T16:38:41;11.30;54.30
19214;DHT22;9741;51.020;5.304;2024-03-23T16:41:10;11.30;54.30
19214;DHT22;9741;51.020;5.304;2024-03-23T16:43:39;11.30;54.40
19214;DHT22;9741;51.020;5.304;2024-03-23T16:46:06;11.40;54.40
19214;DHT22;9741;51.020;5.304;2024-03-23T16:48:39;11.40;54.20
19214;DHT22;9741;51.020;5.304;2024-03-23T16:51:05;11.40;54.20
19214;DHT22;9741;51.020;5.304;2024-03-23T16:53:33;11.30;54.00